Dell City, Texas
Current Conditions -  °F | °C
As of 2:51 PM on Monday 24 Nov 2014 (Local Time) from KGDP Reporting Station
Clear Clear  
Wind Chill: 10°   Ceiling: Unl
Heat Index: 10°   Visibility: 10mi
Dew Point: -21°   Wind: 37mph
Humidity: 10%   Direction: 250°WSW
Pressure: 30.02"   Gusts: 47mph
Location:  31.94°N, 105.2°W
Report Text: KGDP 242151Z AUTO 25032G41KT 10SM CLR 10/M21 A3002 RMK AO2 PK WND 26043/2134 SLP148 T01001211
Loading
Personal Weather Stations






























Interactive Weather Map New forecast layout! Learn more

10-Day Weather Forecast

Advertisements
Track Severe Weather on mobile